createdAt,value
2022-11-27T00:01:12.809Z,12.63
2022-11-27T00:03:40.621Z,8.27
2022-11-27T00:06:08.437Z,10.57
2022-11-27T00:08:35.100Z,11.90
2022-11-27T00:11:09.836Z,14.60
2022-11-27T00:13:36.842Z,12.60
2022-11-27T00:16:04.812Z,7.45
2022-11-27T00:18:32.298Z,9.10
2022-11-27T00:21:04.868Z,6.88
2022-11-27T00:23:32.378Z,7.53
2022-11-27T00:25:59.067Z,11.30
2022-11-27T00:28:25.854Z,8.88
2022-11-27T00:30:52.724Z,8.80
2022-11-27T00:33:19.452Z,13.30
2022-11-27T00:35:46.233Z,6.00
2022-11-27T00:38:12.907Z,10.40
2022-11-27T00:40:39.620Z,9.82
2022-11-27T00:43:06.334Z,6.88
2022-11-27T00:45:33.094Z,9.48
2022-11-27T00:47:59.849Z,7.45
2022-11-27T00:50:26.551Z,8.95
2022-11-27T00:52:53.218Z,7.32
2022-11-27T00:55:20.288Z,7.78
2022-11-27T00:57:46.957Z,8.73
2022-11-27T01:00:14.481Z,5.82
2022-11-27T01:02:41.265Z,7.47
2022-11-27T01:05:08.520Z,6.88
2022-11-27T01:07:35.279Z,10.15
2022-11-27T01:10:02.173Z,7.65
2022-11-27T01:12:29.239Z,7.68
2022-11-27T01:14:55.924Z,9.68
2022-11-27T01:17:22.594Z,5.57
2022-11-27T01:19:49.360Z,8.30
2022-11-27T01:22:16.043Z,9.88
2022-11-27T01:24:43.645Z,11.65
2022-11-27T01:27:10.323Z,5.60
2022-11-27T01:29:36.997Z,11.65
2022-11-27T01:32:03.794Z,5.85
2022-11-27T01:34:30.445Z,8.00
2022-11-27T01:36:57.089Z,9.80
2022-11-27T01:39:24.700Z,7.05
2022-11-27T01:41:51.458Z,8.45
2022-11-27T01:44:24.453Z,7.78
2022-11-27T01:47:03.314Z,9.85
2022-11-27T01:49:40.263Z,7.03
2022-11-27T01:52:22.440Z,5.03
2022-11-27T01:54:54.806Z,5.68
2022-11-27T01:57:25.842Z,6.68
2022-11-27T01:59:55.023Z,4.30
2022-11-27T02:02:21.781Z,6.90
2022-11-27T02:04:48.521Z,6.32
2022-11-27T02:07:15.455Z,8.15
2022-11-27T02:09:42.458Z,6.85
2022-11-27T02:12:25.583Z,9.23
2022-11-27T02:15:08.600Z,4.85
2022-11-27T02:17:43.635Z,8.40
2022-11-27T02:20:27.857Z,5.68
2022-11-27T02:23:16.244Z,8.68
2022-11-27T02:26:09.603Z,4.90
2022-11-27T02:28:57.685Z,6.38
2022-11-27T02:31:33.358Z,7.97
2022-11-27T02:34:27.219Z,9.13
2022-11-27T02:37:01.767Z,9.80
2022-11-27T02:39:35.168Z,11.43
2022-11-27T02:42:08.053Z,7.60
2022-11-27T02:44:40.228Z,6.13
2022-11-27T02:47:07.633Z,7.10
2022-11-27T02:49:36.218Z,11.77
2022-11-27T02:52:03.753Z,9.48
2022-11-27T02:54:31.102Z,9.75
2022-11-27T02:57:00.790Z,8.25
2022-11-27T02:59:29.881Z,6.35
2022-11-27T03:02:01.349Z,7.07
2022-11-27T03:04:35.081Z,7.40
2022-11-27T03:07:07.374Z,7.70
2022-11-27T03:09:40.327Z,7.82
2022-11-27T03:12:09.610Z,7.20
2022-11-27T03:14:37.146Z,8.52
2022-11-27T03:17:22.383Z,10.73
2022-11-27T03:19:56.941Z,8.02
2022-11-27T03:22:23.668Z,5.50
2022-11-27T03:24:50.523Z,5.78
2022-11-27T03:27:21.513Z,5.25
2022-11-27T03:29:52.041Z,8.57
2022-11-27T03:32:18.816Z,8.43
2022-11-27T03:34:46.441Z,3.67
2022-11-27T03:37:13.273Z,5.63
2022-11-27T03:39:40.060Z,12.00
2022-11-27T03:42:06.927Z,5.47
2022-11-27T03:44:40.565Z,7.15
2022-11-27T03:47:42.670Z,9.35
2022-11-27T03:50:43.232Z,8.68
2022-11-27T03:53:21.883Z,6.85
2022-11-27T03:55:55.667Z,7.10
2022-11-27T03:58:24.137Z,4.75
2022-11-27T04:00:51.445Z,7.20
2022-11-27T04:03:25.357Z,6.55
2022-11-27T04:05:52.053Z,6.07
2022-11-27T04:08:18.954Z,9.82
2022-11-27T04:10:46.007Z,2.95
2022-11-27T04:13:12.797Z,6.82
2022-11-27T04:15:39.665Z,8.13
2022-11-27T04:18:06.606Z,4.65
2022-11-27T04:20:33.547Z,5.53
2022-11-27T04:23:00.239Z,3.95
2022-11-27T04:25:26.994Z,4.40
2022-11-27T04:27:53.759Z,5.95
2022-11-27T04:30:20.658Z,4.45
2022-11-27T04:32:47.294Z,6.18
2022-11-27T04:35:14.308Z,4.50
2022-11-27T04:37:40.998Z,4.07
2022-11-27T04:40:08.306Z,5.28
2022-11-27T04:42:34.989Z,4.03
2022-11-27T04:45:01.692Z,7.22
2022-11-27T04:47:28.374Z,3.50
2022-11-27T04:49:55.043Z,6.00
2022-11-27T04:52:21.706Z,4.75
2022-11-27T04:54:48.379Z,4.57
2022-11-27T04:57:15.089Z,2.83
2022-11-27T04:59:41.757Z,8.75
2022-11-27T05:02:08.588Z,3.80
2022-11-27T05:04:35.275Z,4.38
2022-11-27T05:07:01.966Z,6.75
2022-11-27T05:09:28.619Z,5.00
2022-11-27T05:11:55.283Z,3.80
2022-11-27T05:14:24.080Z,4.22
2022-11-27T05:16:52.346Z,4.53
2022-11-27T05:19:21.340Z,3.17
2022-11-27T05:21:48.804Z,5.43
2022-11-27T05:24:16.741Z,3.90
2022-11-27T05:26:43.843Z,2.88
2022-11-27T05:29:13.644Z,5.63
2022-11-27T05:31:40.586Z,6.38
2022-11-27T05:34:07.493Z,4.30
2022-11-27T05:36:34.611Z,2.88
2022-11-27T05:39:01.813Z,1.83
2022-11-27T05:41:29.605Z,5.25
2022-11-27T05:43:56.302Z,2.45
2022-11-27T05:46:23.535Z,3.65
2022-11-27T05:48:50.505Z,3.60
2022-11-27T05:51:17.966Z,6.88
2022-11-27T05:53:45.120Z,4.03
2022-11-27T05:56:17.200Z,2.35
2022-11-27T05:58:45.569Z,4.35
2022-11-27T06:01:13.211Z,1.85
2022-11-27T06:03:39.982Z,5.65
2022-11-27T06:06:18.184Z,4.07
2022-11-27T06:08:46.087Z,5.25
2022-11-27T06:11:17.095Z,4.53
2022-11-27T06:13:44.498Z,2.00
2022-11-27T06:16:13.611Z,4.18
2022-11-27T06:18:40.329Z,5.38
2022-11-27T06:21:09.566Z,1.10
2022-11-27T06:23:36.737Z,1.88
2022-11-27T06:26:18.674Z,3.03
2022-11-27T06:28:45.905Z,3.10
2022-11-27T06:31:21.712Z,4.15
2022-11-27T06:33:49.434Z,1.42
2022-11-27T06:36:16.898Z,3.17
2022-11-27T06:38:43.879Z,2.78
2022-11-27T06:41:16.425Z,3.05
2022-11-27T06:43:43.181Z,2.85
2022-11-27T06:46:13.880Z,1.65
2022-11-27T06:48:40.982Z,3.80
2022-11-27T06:51:08.719Z,2.20
2022-11-27T06:53:36.913Z,2.95
2022-11-27T06:56:05.377Z,2.67
2022-11-27T06:58:32.080Z,3.30
2022-11-27T07:00:59.940Z,1.77
2022-11-27T07:03:26.870Z,3.17
2022-11-27T07:05:53.993Z,2.47
2022-11-27T07:08:21.045Z,2.92
2022-11-27T07:10:47.758Z,3.03
2022-11-27T07:13:14.398Z,3.83
2022-11-27T07:15:41.071Z,4.30
2022-11-27T07:18:07.855Z,2.75
2022-11-27T07:20:34.465Z,1.27
2022-11-27T07:23:01.147Z,5.40
2022-11-27T07:25:28.030Z,1.52
2022-11-27T07:27:55.851Z,3.05
2022-11-27T07:30:22.503Z,2.10
2022-11-27T07:32:49.166Z,2.33
2022-11-27T07:35:15.854Z,2.50
2022-11-27T07:37:42.609Z,1.58
2022-11-27T07:40:09.518Z,2.40
2022-11-27T07:42:38.671Z,2.33
2022-11-27T07:45:08.011Z,2.78
2022-11-27T07:47:34.703Z,3.33
2022-11-27T07:50:01.571Z,7.38
2022-11-27T07:52:28.268Z,2.22
2022-11-27T07:54:54.929Z,3.30
2022-11-27T07:57:21.816Z,6.43
2022-11-27T07:59:48.582Z,3.95
2022-11-27T08:02:15.408Z,2.92
2022-11-27T08:04:42.508Z,2.95
2022-11-27T08:07:09.467Z,3.25
2022-11-27T08:09:36.270Z,3.13
2022-11-27T08:12:03.016Z,3.25
2022-11-27T08:14:29.755Z,2.50
2022-11-27T08:16:57.609Z,1.38
2022-11-27T08:19:24.501Z,3.65
2022-11-27T08:21:51.639Z,2.67
2022-11-27T08:24:18.367Z,2.53
2022-11-27T08:26:45.232Z,2.78
2022-11-27T08:29:13.180Z,2.60
2022-11-27T08:31:40.196Z,1.48
2022-11-27T08:34:07.023Z,2.95
2022-11-27T08:36:33.734Z,2.63
2022-11-27T08:39:00.383Z,2.72
2022-11-27T08:41:27.101Z,2.10
2022-11-27T08:43:53.750Z,3.38
2022-11-27T08:46:20.446Z,1.15
2022-11-27T08:48:47.334Z,1.55
2022-11-27T08:51:15.325Z,2.50
2022-11-27T08:53:45.387Z,1.80
2022-11-27T08:56:17.848Z,1.45
2022-11-27T08:58:44.779Z,0.68
2022-11-27T09:01:22.979Z,1.52
2022-11-27T09:03:50.239Z,0.82
2022-11-27T09:06:22.745Z,1.88
2022-11-27T09:08:50.058Z,2.67
2022-11-27T09:11:19.495Z,2.25
2022-11-27T09:13:46.700Z,2.13
2022-11-27T09:16:16.147Z,1.58
2022-11-27T09:18:47.371Z,1.10
2022-11-27T09:21:15.387Z,6.95
2022-11-27T09:23:42.559Z,1.40
2022-11-27T09:26:11.246Z,1.00
2022-11-27T09:28:38.865Z,1.27
2022-11-27T09:31:07.386Z,1.25
2022-11-27T09:33:35.580Z,2.17
2022-11-27T09:36:23.504Z,1.52
2022-11-27T09:38:50.396Z,1.80
2022-11-27T09:41:42.849Z,5.68
2022-11-27T09:44:23.387Z,1.63
2022-11-27T09:46:50.852Z,4.00
2022-11-27T09:49:25.417Z,1.63
2022-11-27T09:52:07.063Z,2.08
2022-11-27T09:54:38.447Z,1.25
2022-11-27T09:57:06.110Z,1.73
2022-11-27T09:59:52.420Z,1.40
2022-11-27T10:02:25.776Z,1.88
2022-11-27T10:05:12.788Z,1.50
2022-11-27T10:08:21.695Z,1.33
2022-11-27T10:11:13.747Z,2.45
2022-11-27T10:14:02.461Z,1.98
2022-11-27T10:16:31.850Z,3.15
2022-11-27T10:19:05.334Z,7.45
2022-11-27T10:21:52.870Z,2.97
2022-11-27T10:24:36.757Z,2.42
2022-11-27T10:27:15.716Z,1.33
2022-11-27T10:29:52.115Z,13.48
2022-11-27T10:32:54.608Z,1.50
2022-11-27T10:35:23.811Z,1.67
2022-11-27T10:38:05.219Z,1.42
2022-11-27T10:40:45.794Z,1.15
2022-11-27T10:43:22.768Z,0.85
2022-11-27T10:46:11.129Z,1.05
2022-11-27T10:48:39.508Z,2.83
2022-11-27T10:51:16.358Z,0.75
2022-11-27T10:53:47.399Z,2.60
2022-11-27T10:56:22.296Z,1.30
2022-11-27T10:59:01.721Z,0.60
2022-11-27T11:01:44.033Z,2.47
2022-11-27T11:04:37.005Z,3.72
2022-11-27T11:07:26.695Z,1.77
2022-11-27T11:09:56.557Z,3.30
2022-11-27T11:12:24.821Z,0.77
2022-11-27T11:15:05.390Z,1.20
2022-11-27T11:17:37.833Z,0.68
2022-11-27T11:20:18.197Z,1.75
2022-11-27T11:22:47.224Z,0.75
2022-11-27T11:25:21.650Z,1.00
2022-11-27T11:27:49.641Z,0.80
2022-11-27T11:30:28.797Z,1.73
2022-11-27T11:33:03.337Z,0.95
2022-11-27T11:35:37.036Z,1.05
2022-11-27T11:38:05.584Z,1.55
2022-11-27T11:40:35.068Z,1.13
2022-11-27T11:43:04.274Z,2.42
2022-11-27T11:45:33.058Z,1.27
2022-11-27T11:48:02.668Z,1.55
2022-11-27T11:50:45.218Z,1.20
2022-11-27T11:53:20.601Z,2.53
2022-11-27T11:56:28.684Z,2.65
2022-11-27T11:59:00.777Z,2.38
2022-11-27T12:01:45.909Z,2.28
2022-11-27T12:07:28.148Z,0.90
2022-11-27T12:10:09.728Z,1.08
2022-11-27T12:12:48.154Z,0.95
2022-11-27T12:15:42.134Z,0.63
2022-11-27T12:18:17.888Z,1.63
2022-11-27T12:21:17.995Z,1.38
2022-11-27T12:23:53.396Z,0.77
2022-11-27T12:26:22.611Z,0.55
2022-11-27T12:29:14.368Z,2.17
2022-11-27T12:31:59.549Z,0.47
2022-11-27T12:36:55.645Z,2.30
2022-11-27T12:39:56.794Z,1.67
2022-11-27T12:42:34.410Z,1.17
2022-11-27T12:45:17.994Z,1.73
2022-11-27T12:48:08.416Z,1.00
2022-11-27T12:50:37.805Z,0.60
2022-11-27T12:53:24.991Z,0.95
2022-11-27T12:56:16.743Z,1.27
2022-11-27T12:58:51.229Z,2.60
2022-11-27T13:01:26.797Z,2.67
2022-11-27T13:04:12.132Z,2.50
2022-11-27T13:09:45.113Z,1.45
2022-11-27T13:12:29.869Z,1.80
2022-11-27T13:15:04.468Z,2.67
2022-11-27T13:17:39.788Z,2.00
2022-11-27T13:20:16.615Z,1.92
2022-11-27T13:22:44.274Z,4.60
2022-11-27T13:25:14.788Z,2.35
2022-11-27T13:27:46.181Z,2.25
2022-11-27T13:30:23.266Z,2.35
2022-11-27T13:32:54.227Z,3.35
2022-11-27T13:35:42.555Z,8.02
2022-11-27T13:38:11.413Z,3.13
2022-11-27T13:40:43.511Z,6.85
2022-11-27T13:43:28.624Z,4.10
2022-11-27T13:48:37.030Z,3.83
2022-11-27T13:51:05.088Z,2.22
2022-11-27T13:53:41.126Z,2.10
2022-11-27T13:56:09.061Z,2.67
2022-11-27T13:58:41.031Z,2.33
2022-11-27T14:01:22.371Z,2.88
2022-11-27T14:03:49.524Z,2.00
2022-11-27T14:06:26.248Z,2.00
2022-11-27T14:09:01.655Z,2.40
2022-11-27T14:11:45.743Z,1.55
2022-11-27T14:14:19.702Z,4.10
2022-11-27T14:16:56.463Z,3.30
2022-11-27T14:19:33.282Z,2.88
2022-11-27T14:22:02.093Z,3.22
2022-11-27T14:24:36.389Z,3.50
2022-11-27T14:27:15.018Z,2.58
2022-11-27T14:29:41.797Z,3.05
2022-11-27T14:32:13.404Z,3.03
2022-11-27T14:34:40.549Z,3.22
2022-11-27T14:37:18.766Z,2.78
2022-11-27T14:39:45.451Z,2.92
2022-11-27T14:42:28.920Z,8.48
2022-11-27T14:45:05.265Z,4.23
2022-11-27T14:47:32.703Z,3.38
2022-11-27T14:49:59.738Z,3.45
2022-11-27T14:52:26.719Z,4.88
2022-11-27T14:54:55.278Z,4.80
2022-11-27T14:57:27.309Z,4.80
2022-11-27T15:00:17.056Z,4.22
2022-11-27T15:02:45.352Z,4.25
2022-11-27T15:05:27.374Z,4.05
2022-11-27T15:07:58.796Z,4.15
2022-11-27T15:10:41.621Z,4.05
2022-11-27T15:13:26.281Z,4.28
2022-11-27T15:16:16.913Z,6.25
2022-11-27T15:18:48.972Z,9.18
2022-11-27T15:21:19.741Z,6.95
2022-11-27T15:23:48.346Z,6.38
2022-11-27T15:26:36.611Z,10.95
2022-11-27T15:29:04.013Z,6.78
2022-11-27T15:31:39.468Z,5.93
2022-11-27T15:34:21.792Z,5.72
2022-11-27T15:36:52.192Z,2.65
2022-11-27T15:39:27.190Z,2.53
2022-11-27T15:41:57.888Z,3.53
2022-11-27T15:44:25.978Z,5.78
2022-11-27T15:46:54.150Z,5.18
2022-11-27T15:49:22.845Z,4.68
2022-11-27T15:51:50.279Z,7.85
2022-11-27T15:54:16.948Z,6.40
2022-11-27T15:56:43.888Z,5.63
2022-11-27T15:59:10.776Z,4.70
2022-11-27T16:01:38.069Z,4.40
2022-11-27T16:04:05.051Z,5.68
2022-11-27T16:06:31.704Z,4.85
2022-11-27T16:09:00.310Z,2.55
2022-11-27T16:11:29.501Z,4.20
2022-11-27T16:13:56.517Z,2.75
2022-11-27T16:16:23.657Z,3.08
2022-11-27T16:18:50.495Z,3.90
2022-11-27T16:21:21.703Z,3.40
2022-11-27T16:23:49.943Z,2.90
2022-11-27T16:26:17.189Z,3.60
2022-11-27T16:28:43.982Z,3.25
2022-11-27T16:31:13.437Z,5.13
2022-11-27T16:33:40.365Z,2.10
2022-11-27T16:36:12.344Z,2.83
2022-11-27T16:38:39.473Z,2.33
2022-11-27T16:41:08.319Z,2.20
2022-11-27T16:43:37.441Z,3.63
2022-11-27T16:46:06.615Z,4.10
2022-11-27T16:48:35.293Z,3.92
2022-11-27T16:51:03.994Z,3.53
2022-11-27T16:53:30.713Z,2.45
2022-11-27T16:55:57.593Z,4.18
2022-11-27T16:58:24.283Z,3.50
2022-11-27T17:00:51.013Z,5.15
2022-11-27T17:03:17.694Z,3.03
2022-11-27T17:05:48.792Z,2.35
2022-11-27T17:08:17.914Z,3.88
2022-11-27T17:10:45.292Z,2.80
2022-11-27T17:13:11.909Z,4.15
2022-11-27T17:15:40.722Z,3.10
2022-11-27T17:18:07.740Z,3.17
2022-11-27T17:20:34.446Z,3.70
2022-11-27T17:23:01.149Z,3.03
2022-11-27T17:25:30.033Z,3.50
2022-11-27T17:27:56.949Z,3.67
2022-11-27T17:30:23.967Z,3.92
2022-11-27T17:32:51.334Z,3.63
2022-11-27T17:35:18.114Z,2.25
2022-11-27T17:37:45.501Z,3.63
2022-11-27T17:40:13.101Z,2.67
2022-11-27T17:42:39.981Z,1.90
2022-11-27T17:45:07.318Z,3.90
2022-11-27T17:47:34.163Z,1.92
2022-11-27T17:50:01.027Z,1.58
2022-11-27T17:52:27.909Z,3.10
2022-11-27T17:54:54.806Z,2.00
2022-11-27T17:57:21.698Z,7.45
2022-11-27T17:59:49.395Z,3.28
2022-11-27T18:02:16.105Z,2.53
2022-11-27T18:04:42.772Z,2.40
2022-11-27T18:07:09.403Z,2.00
2022-11-27T18:09:36.069Z,2.10
2022-11-27T18:12:02.808Z,1.60
2022-11-27T18:14:29.785Z,2.30
2022-11-27T18:16:56.577Z,2.33
2022-11-27T18:19:23.428Z,2.25
2022-11-27T18:21:53.101Z,1.88
2022-11-27T18:24:24.376Z,2.58
2022-11-27T18:27:09.146Z,2.95
2022-11-27T18:29:38.590Z,3.08
2022-11-27T18:32:06.189Z,2.63
2022-11-27T18:34:33.038Z,2.35
2022-11-27T18:37:00.812Z,2.50
2022-11-27T18:39:28.084Z,1.45
2022-11-27T18:41:55.226Z,1.77
2022-11-27T18:44:21.892Z,2.33
2022-11-27T18:46:48.562Z,3.05
2022-11-27T18:49:15.181Z,2.35
2022-11-27T18:51:41.925Z,2.25
2022-11-27T18:54:08.577Z,4.45
2022-11-27T18:56:37.046Z,1.90
2022-11-27T18:59:05.517Z,1.65
2022-11-27T19:01:39.641Z,1.65
2022-11-27T19:04:08.192Z,1.92
2022-11-27T19:06:36.000Z,1.88
2022-11-27T19:09:02.814Z,3.55
2022-11-27T19:11:30.838Z,1.20
2022-11-27T19:13:58.189Z,1.98
2022-11-27T19:16:36.149Z,2.00
2022-11-27T19:19:04.315Z,3.00
2022-11-27T19:21:32.708Z,3.00
2022-11-27T19:24:00.719Z,1.83
2022-11-27T19:26:35.128Z,2.30
2022-11-27T19:29:05.488Z,2.10
2022-11-27T19:31:33.207Z,6.45
2022-11-27T19:34:01.500Z,2.88
2022-11-27T19:36:29.674Z,3.58
2022-11-27T19:38:59.653Z,4.82
2022-11-27T19:41:27.228Z,4.88
2022-11-27T19:43:54.156Z,3.20
2022-11-27T19:46:25.006Z,2.35
2022-11-27T19:48:55.089Z,1.48
2022-11-27T19:51:21.883Z,3.60
2022-11-27T19:53:48.707Z,4.25
2022-11-27T19:56:15.367Z,2.90
2022-11-27T19:58:42.400Z,2.53
2022-11-27T20:01:15.210Z,1.90
2022-11-27T20:03:42.763Z,2.00
2022-11-27T20:06:12.177Z,2.58
2022-11-27T20:08:39.455Z,2.42
2022-11-27T20:11:08.027Z,4.60
2022-11-27T20:13:34.998Z,1.70
2022-11-27T20:16:03.843Z,2.13
2022-11-27T20:18:30.548Z,3.45
2022-11-27T20:21:04.824Z,3.20
2022-11-27T20:23:31.501Z,1.98
2022-11-27T20:25:58.630Z,1.58
2022-11-27T20:28:25.329Z,1.85
2022-11-27T20:31:00.849Z,3.65
2022-11-27T20:33:28.283Z,6.35
2022-11-27T20:35:55.981Z,3.10
2022-11-27T20:38:23.492Z,2.42
2022-11-27T20:40:51.007Z,1.83
2022-11-27T20:43:17.717Z,1.27
2022-11-27T20:45:44.589Z,1.45
2022-11-27T20:48:11.698Z,3.42
2022-11-27T20:50:39.666Z,2.78
2022-11-27T20:53:06.623Z,0.88
2022-11-27T20:55:33.969Z,1.08
2022-11-27T20:58:00.836Z,1.15
2022-11-27T21:00:28.105Z,1.75
2022-11-27T21:02:54.833Z,2.15
2022-11-27T21:05:21.502Z,3.38
2022-11-27T21:07:48.270Z,1.50
2022-11-27T21:10:16.873Z,1.55
2022-11-27T21:12:43.922Z,0.95
2022-11-27T21:15:11.100Z,1.17
2022-11-27T21:17:37.758Z,2.70
2022-11-27T21:20:05.735Z,1.58
2022-11-27T21:22:32.378Z,0.73
2022-11-27T21:24:59.133Z,0.93
2022-11-27T21:27:27.707Z,2.47
2022-11-27T21:29:54.438Z,2.15
2022-11-27T21:32:22.773Z,2.15
2022-11-27T21:34:49.517Z,1.30
2022-11-27T21:37:16.189Z,0.75
2022-11-27T21:39:44.498Z,1.50
2022-11-27T21:42:11.440Z,2.70
2022-11-27T21:44:41.357Z,1.27
2022-11-27T21:47:12.054Z,0.98
2022-11-27T21:49:40.031Z,2.63
2022-11-27T21:52:07.397Z,1.10
2022-11-27T21:54:34.580Z,1.33
2022-11-27T21:57:01.369Z,1.45
2022-11-27T21:59:28.065Z,0.75
2022-11-27T22:01:57.147Z,3.85
2022-11-27T22:04:25.199Z,3.10
2022-11-27T22:06:52.265Z,1.38
2022-11-27T22:09:19.316Z,1.65
2022-11-27T22:11:46.778Z,3.85
2022-11-27T22:14:14.808Z,1.83
2022-11-27T22:16:45.703Z,1.08
2022-11-27T22:19:14.259Z,0.93
2022-11-27T22:21:41.261Z,0.52
2022-11-27T22:24:12.193Z,0.50
2022-11-27T22:26:43.404Z,1.15
2022-11-27T22:29:10.082Z,1.40
2022-11-27T22:31:36.777Z,0.50
2022-11-27T22:34:03.772Z,0.93
2022-11-27T22:36:33.023Z,0.73
2022-11-27T22:39:02.510Z,0.30
2022-11-27T22:41:30.910Z,0.77
2022-11-27T22:44:00.116Z,1.05
2022-11-27T22:46:32.129Z,1.25
2022-11-27T22:49:00.588Z,0.80
2022-11-27T22:51:29.624Z,0.63
2022-11-27T22:53:56.843Z,0.57
2022-11-27T22:56:23.641Z,0.30
2022-11-27T22:58:58.245Z,0.60
2022-11-27T23:01:32.958Z,0.40
2022-11-27T23:04:00.969Z,0.40
2022-11-27T23:06:28.122Z,0.32
2022-11-27T23:08:54.954Z,0.40
2022-11-27T23:11:26.927Z,0.50
2022-11-27T23:13:55.220Z,0.40
2022-11-27T23:16:22.439Z,0.70
2022-11-27T23:18:50.675Z,0.40
2022-11-27T23:21:22.139Z,0.50
2022-11-27T23:23:49.335Z,0.93
2022-11-27T23:26:18.728Z,1.00
2022-11-27T23:28:46.311Z,0.65
2022-11-27T23:31:30.324Z,1.85
2022-11-27T23:33:58.025Z,0.98
2022-11-27T23:36:25.199Z,1.90
2022-11-27T23:38:52.320Z,1.10
2022-11-27T23:41:22.098Z,1.10
2022-11-27T23:43:49.193Z,0.93
2022-11-27T23:46:17.852Z,1.33
2022-11-27T23:48:45.061Z,0.73
2022-11-27T23:51:19.869Z,2.25
2022-11-27T23:56:22.527Z,0.70
2022-11-27T23:58:49.640Z,0.95
